HOP487 KMLB-KTPA
Flight info
| Callsign | HOP487 |
|---|---|
| Flight time | 0h 34m |
| Altitude | 10000 |
| Route | MLB8 DCT PDLLA |
| Aircraft | C25C/L-SDFGRWYL/L |
Departure
| Time | 2026-04-22 01:41 |
|---|---|
| Airport | Melbourne Orlando International Airport (KMLB) |
Arrival
| Time | 2026-04-22 02:16 |
|---|---|
| Airport | Tampa International Airport (KTPA) |
| Time | Latitude | Longitude | Altitude | Speed | Heading |
|---|---|---|---|---|---|
| 2026-04-22 01:18 | 28.09759 | -80.63874 | 32 ft | 0 kts | 336° |
| 2026-04-22 01:31 | 28.09754 | -80.63868 | 32 ft | 2 kts | 276° |
| 2026-04-22 01:32 | 28.09754 | -80.63863 | 32 ft | 0 kts | 244° |
| 2026-04-22 01:32 | 28.09747 | -80.63868 | 32 ft | 9 kts | 195° |
| 2026-04-22 01:32 | 28.09736 | -80.63853 | 32 ft | 2 kts | 67° |
| 2026-04-22 01:33 | 28.09735 | -80.63855 | 32 ft | 1 kts | 69° |
| 2026-04-22 01:33 | 28.09732 | -80.63863 | 32 ft | 0 kts | 69° |
| 2026-04-22 01:35 | 28.09734 | -80.63857 | 32 ft | 2 kts | 70° |
| 2026-04-22 01:36 | 28.09693 | -80.63816 | 33 ft | 0 kts | 127° |
| 2026-04-22 01:36 | 28.09687 | -80.63791 | 33 ft | 3 kts | 49° |
| 2026-04-22 01:36 | 28.09759 | -80.63840 | 32 ft | 20 kts | 330° |
| 2026-04-22 01:36 | 28.09898 | -80.63906 | 33 ft | 20 kts | 337° |
| 2026-04-22 01:37 | 28.10084 | -80.64106 | 33 ft | 21 kts | 278° |
| 2026-04-22 01:37 | 28.10072 | -80.64346 | 33 ft | 35 kts | 266° |
| 2026-04-22 01:37 | 28.10063 | -80.64536 | 32 ft | 36 kts | 267° |
| 2026-04-22 01:37 | 28.10047 | -80.64942 | 30 ft | 42 kts | 268° |
| 2026-04-22 01:38 | 28.10039 | -80.65169 | 31 ft | 45 kts | 268° |
| 2026-04-22 01:38 | 28.10021 | -80.65536 | 33 ft | 48 kts | 266° |
| 2026-04-22 01:38 | 28.10001 | -80.65913 | 36 ft | 47 kts | 262° |
| 2026-04-22 01:38 | 28.10028 | -80.66096 | 36 ft | 4 kts | 343° |
| 2026-04-22 01:39 | 28.10029 | -80.66097 | 36 ft | 0 kts | 344° |
| 2026-04-22 01:39 | 28.10043 | -80.66098 | 36 ft | 11 kts | 357° |
| 2026-04-22 01:39 | 28.10134 | -80.66075 | 34 ft | 10 kts | 100° |
| 2026-04-22 01:40 | 28.10132 | -80.66036 | 33 ft | 0 kts | 86° |
| 2026-04-22 01:40 | 28.10147 | -80.65773 | 34 ft | 94 kts | 86° |
| 2026-04-22 01:40 | 28.10211 | -80.64642 | 102 ft | 182 kts | 86° |
| 2026-04-22 01:41 | 28.10298 | -80.63070 | 361 ft | 210 kts | 86° |
| 2026-04-22 01:41 | 28.10393 | -80.61454 | 652 ft | 205 kts | 86° |
| 2026-04-22 01:41 | 28.10486 | -80.59804 | 759 ft | 214 kts | 85° |
| 2026-04-22 01:41 | 28.10566 | -80.58099 | 872 ft | 219 kts | 86° |
| 2026-04-22 01:42 | 28.10638 | -80.56384 | 995 ft | 222 kts | 86° |
| 2026-04-22 01:42 | 28.10711 | -80.54589 | 1004 ft | 229 kts | 87° |
| 2026-04-22 01:42 | 28.10778 | -80.52783 | 1002 ft | 235 kts | 87° |
| 2026-04-22 01:42 | 28.10839 | -80.50925 | 1007 ft | 236 kts | 87° |
| 2026-04-22 01:43 | 28.10569 | -80.49077 | 999 ft | 241 kts | 103° |
| 2026-04-22 01:43 | 28.10218 | -80.47215 | 1003 ft | 243 kts | 97° |
| 2026-04-22 01:43 | 28.09757 | -80.45364 | 1003 ft | 248 kts | 117° |
| 2026-04-22 01:43 | 28.08283 | -80.44366 | 1662 ft | 262 kts | 169° |
| 2026-04-22 01:44 | 28.06433 | -80.44666 | 2271 ft | 285 kts | 197° |
| 2026-04-22 01:44 | 28.04810 | -80.46043 | 2269 ft | 301 kts | 230° |
| 2026-04-22 01:44 | 28.04035 | -80.48243 | 2267 ft | 304 kts | 263° |
| 2026-04-22 01:44 | 28.04279 | -80.50595 | 2279 ft | 303 kts | 287° |
| 2026-04-22 01:45 | 28.04996 | -80.52802 | 2280 ft | 288 kts | 297° |
| 2026-04-22 01:45 | 28.05948 | -80.54711 | 2283 ft | 277 kts | 308° |
| 2026-04-22 01:45 | 28.07168 | -80.56356 | 2461 ft | 275 kts | 315° |
| 2026-04-22 01:45 | 28.08462 | -80.57950 | 2624 ft | 276 kts | 315° |
| 2026-04-22 01:46 | 28.09752 | -80.59564 | 2797 ft | 276 kts | 314° |
| 2026-04-22 01:46 | 28.11028 | -80.61205 | 2961 ft | 277 kts | 314° |
| 2026-04-22 01:46 | 28.12286 | -80.62858 | 3126 ft | 278 kts | 313° |
| 2026-04-22 01:46 | 28.13543 | -80.64534 | 3278 ft | 278 kts | 313° |
| 2026-04-22 01:47 | 28.14600 | -80.66366 | 3421 ft | 283 kts | 289° |
| 2026-04-22 01:47 | 28.14619 | -80.68591 | 3560 ft | 285 kts | 262° |
| 2026-04-22 01:47 | 28.14387 | -80.70792 | 3691 ft | 285 kts | 268° |
| 2026-04-22 01:47 | 28.14740 | -80.72988 | 3817 ft | 284 kts | 289° |
| 2026-04-22 01:48 | 28.15230 | -80.75167 | 3939 ft | 287 kts | 278° |
| 2026-04-22 01:48 | 28.15268 | -80.77426 | 4084 ft | 287 kts | 271° |
| 2026-04-22 01:48 | 28.15603 | -80.79638 | 4188 ft | 286 kts | 290° |
| 2026-04-22 01:48 | 28.16218 | -80.81782 | 4302 ft | 288 kts | 284° |
| 2026-04-22 01:49 | 28.16327 | -80.84059 | 4423 ft | 289 kts | 270° |
| 2026-04-22 01:49 | 28.16548 | -80.86314 | 4509 ft | 289 kts | 288° |
| 2026-04-22 01:49 | 28.17182 | -80.88475 | 4628 ft | 289 kts | 287° |
| 2026-04-22 01:49 | 28.17374 | -80.90749 | 4724 ft | 292 kts | 270° |
| 2026-04-22 01:50 | 28.17489 | -80.93005 | 4834 ft | 290 kts | 284° |
| 2026-04-22 01:50 | 28.18104 | -80.95176 | 4941 ft | 289 kts | 290° |
| 2026-04-22 01:50 | 28.18415 | -80.97433 | 5030 ft | 292 kts | 271° |
| 2026-04-22 01:50 | 28.18460 | -80.99732 | 5136 ft | 291 kts | 279° |
| 2026-04-22 01:51 | 28.19021 | -81.01924 | 5214 ft | 289 kts | 292° |
| 2026-04-22 01:51 | 28.19603 | -81.04111 | 5301 ft | 291 kts | 283° |
| 2026-04-22 01:51 | 28.19244 | -81.06327 | 5391 ft | 292 kts | 240° |
| 2026-04-22 01:51 | 28.18384 | -81.08410 | 5496 ft | 301 kts | 265° |
| 2026-04-22 01:52 | 28.19149 | -81.10442 | 7281 ft | 275 kts | 310° |
| 2026-04-22 01:52 | 28.20164 | -81.12339 | 8683 ft | 286 kts | 296° |
| 2026-04-22 01:52 | 28.20864 | -81.14444 | 9775 ft | 295 kts | 289° |
| 2026-04-22 01:52 | 28.21378 | -81.16794 | 10309 ft | 324 kts | 282° |
| 2026-04-22 01:53 | 28.21677 | -81.19436 | 10319 ft | 348 kts | 275° |
| 2026-04-22 01:53 | 28.21838 | -81.22218 | 10322 ft | 358 kts | 275° |
| 2026-04-22 01:53 | 28.22089 | -81.25055 | 10324 ft | 362 kts | 279° |
| 2026-04-22 01:53 | 28.22511 | -81.27850 | 10326 ft | 357 kts | 282° |
| 2026-04-22 01:54 | 28.23054 | -81.30574 | 10326 ft | 353 kts | 284° |
| 2026-04-22 01:54 | 28.23602 | -81.33276 | 10329 ft | 350 kts | 283° |
| 2026-04-22 01:54 | 28.24020 | -81.35988 | 10331 ft | 348 kts | 279° |
| 2026-04-22 01:54 | 28.24310 | -81.38702 | 10330 ft | 346 kts | 276° |
| 2026-04-22 01:55 | 28.24557 | -81.41416 | 10327 ft | 345 kts | 277° |
| 2026-04-22 01:55 | 28.24890 | -81.44106 | 10327 ft | 344 kts | 280° |
| 2026-04-22 01:55 | 28.25347 | -81.46765 | 10326 ft | 343 kts | 283° |
| 2026-04-22 01:55 | 28.25845 | -81.49380 | 10325 ft | 343 kts | 282° |
| 2026-04-22 01:56 | 28.26263 | -81.52043 | 10325 ft | 343 kts | 279° |
| 2026-04-22 01:56 | 28.26559 | -81.54726 | 10323 ft | 343 kts | 277° |
| 2026-04-22 01:56 | 28.26820 | -81.57413 | 10301 ft | 342 kts | 277° |
| 2026-04-22 01:56 | 28.27169 | -81.60085 | 10300 ft | 342 kts | 281° |
| 2026-04-22 01:57 | 28.27627 | -81.62730 | 10299 ft | 342 kts | 283° |
| 2026-04-22 01:57 | 28.28104 | -81.65369 | 10299 ft | 342 kts | 282° |
| 2026-04-22 01:57 | 28.28492 | -81.68028 | 10290 ft | 342 kts | 278° |
| 2026-04-22 01:57 | 28.28778 | -81.70705 | 10290 ft | 342 kts | 277° |
| 2026-04-22 01:58 | 28.29052 | -81.73388 | 10290 ft | 342 kts | 278° |
| 2026-04-22 01:58 | 28.29416 | -81.76049 | 10290 ft | 341 kts | 281° |
| 2026-04-22 01:58 | 28.29876 | -81.78690 | 10291 ft | 341 kts | 282° |
| 2026-04-22 01:58 | 28.30331 | -81.81302 | 10291 ft | 341 kts | 281° |
| 2026-04-22 01:59 | 28.30694 | -81.83962 | 10292 ft | 342 kts | 278° |
| 2026-04-22 01:59 | 28.30972 | -81.86646 | 10294 ft | 342 kts | 277° |
| 2026-04-22 01:59 | 28.31263 | -81.89319 | 10296 ft | 342 kts | 278° |
| 2026-04-22 01:59 | 28.31646 | -81.91979 | 10297 ft | 341 kts | 281° |
| 2026-04-22 02:00 | 28.32106 | -81.94630 | 10297 ft | 341 kts | 282° |
| 2026-04-22 02:00 | 28.32543 | -81.97275 | 10297 ft | 341 kts | 280° |
| 2026-04-22 02:00 | 28.32883 | -81.99941 | 10298 ft | 342 kts | 277° |
| 2026-04-22 02:00 | 28.33155 | -82.02629 | 10299 ft | 342 kts | 277° |
| 2026-04-22 02:01 | 28.33455 | -82.05271 | 10311 ft | 342 kts | 279° |
| 2026-04-22 02:01 | 28.33855 | -82.07928 | 10312 ft | 341 kts | 281° |
| 2026-04-22 02:01 | 28.34315 | -82.10581 | 10312 ft | 341 kts | 282° |
| 2026-04-22 02:01 | 28.34731 | -82.13231 | 10312 ft | 341 kts | 279° |
| 2026-04-22 02:02 | 28.35051 | -82.15914 | 10312 ft | 342 kts | 277° |
| 2026-04-22 02:02 | 28.35323 | -82.18597 | 10311 ft | 342 kts | 277° |
| 2026-04-22 02:02 | 28.35642 | -82.21267 | 10309 ft | 341 kts | 279° |
| 2026-04-22 02:02 | 28.35934 | -82.23912 | 10306 ft | 342 kts | 275° |
| 2026-04-22 02:03 | 28.35808 | -82.26602 | 10302 ft | 342 kts | 257° |
| 2026-04-22 02:03 | 28.34960 | -82.29068 | 10330 ft | 321 kts | 244° |
| 2026-04-22 02:03 | 28.33823 | -82.31123 | 10322 ft | 297 kts | 234° |
| 2026-04-22 02:03 | 28.32441 | -82.32775 | 10259 ft | 284 kts | 216° |
| 2026-04-22 02:04 | 28.28852 | -82.34197 | 10148 ft | 272 kts | 192° |
| 2026-04-22 02:04 | 28.27031 | -82.34719 | 9975 ft | 269 kts | 197° |
| 2026-04-22 02:04 | 28.25324 | -82.35585 | 9751 ft | 269 kts | 210° |
| 2026-04-22 02:05 | 28.23896 | -82.36961 | 9508 ft | 270 kts | 226° |
| 2026-04-22 02:05 | 28.22546 | -82.38448 | 9267 ft | 272 kts | 221° |
| 2026-04-22 02:05 | 28.21018 | -82.39779 | 9144 ft | 285 kts | 216° |
| 2026-04-22 02:05 | 28.19311 | -82.40944 | 9098 ft | 285 kts | 200° |
| 2026-04-22 02:06 | 28.17387 | -82.41325 | 9062 ft | 278 kts | 180° |
| 2026-04-22 02:06 | 28.15507 | -82.41265 | 9026 ft | 269 kts | 175° |
| 2026-04-22 02:06 | 28.13639 | -82.41137 | 8771 ft | 269 kts | 176° |
| 2026-04-22 02:06 | 28.11772 | -82.41145 | 8513 ft | 269 kts | 181° |
| 2026-04-22 02:07 | 28.09903 | -82.41302 | 8352 ft | 263 kts | 182° |
| 2026-04-22 02:07 | 28.08153 | -82.41400 | 8122 ft | 243 kts | 179° |
| 2026-04-22 02:07 | 28.06512 | -82.41392 | 7852 ft | 218 kts | 176° |
| 2026-04-22 02:07 | 28.05134 | -82.41376 | 7559 ft | 180 kts | 177° |
| 2026-04-22 02:08 | 28.03876 | -82.41402 | 7261 ft | 195 kts | 178° |
| 2026-04-22 02:08 | 28.02523 | -82.41444 | 7005 ft | 195 kts | 178° |
| 2026-04-22 02:08 | 28.01161 | -82.41489 | 6751 ft | 195 kts | 178° |
| 2026-04-22 02:08 | 27.99820 | -82.41521 | 6475 ft | 195 kts | 177° |
| 2026-04-22 02:09 | 27.98404 | -82.41542 | 5835 ft | 212 kts | 177° |
| 2026-04-22 02:09 | 27.96891 | -82.41569 | 5230 ft | 221 kts | 178° |
| 2026-04-22 02:09 | 27.95326 | -82.41601 | 4700 ft | 223 kts | 177° |
| 2026-04-22 02:09 | 27.93858 | -82.41632 | 4621 ft | 212 kts | 177° |
| 2026-04-22 02:10 | 27.92352 | -82.41673 | 4410 ft | 220 kts | 177° |
| 2026-04-22 02:10 | 27.90850 | -82.41715 | 4514 ft | 212 kts | 177° |
| 2026-04-22 02:10 | 27.89372 | -82.41749 | 4473 ft | 213 kts | 176° |
| 2026-04-22 02:10 | 27.87962 | -82.41787 | 4294 ft | 196 kts | 178° |
| 2026-04-22 02:11 | 27.86710 | -82.42364 | 3948 ft | 200 kts | 215° |
| 2026-04-22 02:11 | 27.85923 | -82.43682 | 3434 ft | 210 kts | 245° |
| 2026-04-22 02:11 | 27.85397 | -82.45256 | 2582 ft | 221 kts | 246° |
| 2026-04-22 02:11 | 27.84840 | -82.46961 | 1908 ft | 228 kts | 250° |
| 2026-04-22 02:12 | 27.84521 | -82.48581 | 1905 ft | 197 kts | 269° |
| 2026-04-22 02:12 | 27.84934 | -82.49912 | 1862 ft | 171 kts | 316° |
| 2026-04-22 02:12 | 27.85683 | -82.50867 | 1867 ft | 153 kts | 320° |
| 2026-04-22 02:12 | 27.86432 | -82.51655 | 1806 ft | 142 kts | 334° |
| 2026-04-22 02:13 | 27.87263 | -82.52172 | 1715 ft | 135 kts | 345° |
| 2026-04-22 02:13 | 27.88112 | -82.52636 | 1566 ft | 137 kts | 344° |
| 2026-04-22 02:13 | 27.89055 | -82.52995 | 1238 ft | 147 kts | 355° |
| 2026-04-22 02:13 | 27.90063 | -82.53141 | 980 ft | 144 kts | 3° |
| 2026-04-22 02:14 | 27.91005 | -82.53219 | 790 ft | 132 kts | 9° |
| 2026-04-22 02:14 | 27.91897 | -82.53123 | 592 ft | 129 kts | 11° |
| 2026-04-22 02:14 | 27.92798 | -82.53046 | 405 ft | 128 kts | 7° |
| 2026-04-22 02:14 | 27.93659 | -82.53004 | 305 ft | 120 kts | 5° |
| 2026-04-22 02:15 | 27.94505 | -82.52969 | 306 ft | 121 kts | 7° |
| 2026-04-22 02:15 | 27.95375 | -82.52941 | 218 ft | 128 kts | 5° |
| 2026-04-22 02:15 | 27.96238 | -82.52901 | 132 ft | 118 kts | 3° |
| 2026-04-22 02:15 | 27.97028 | -82.52873 | 32 ft | 108 kts | 2° |
| 2026-04-22 02:16 | 27.97486 | -82.52884 | 32 ft | 41 kts | 328° |
| 2026-04-22 02:16 | 27.97535 | -82.52966 | 33 ft | 0 kts | 268° |
| 2026-04-22 02:17 | 27.97535 | -82.52967 | 34 ft | 0 kts | 268° |
| 2026-04-22 02:17 | 27.97479 | -82.53127 | 35 ft | 27 kts | 213° |
| 2026-04-22 02:17 | 27.97405 | -82.53151 | 34 ft | 28 kts | 181° |